createdAt,value
2022-08-03T00:01:49.566Z,63.48
2022-08-03T00:04:16.155Z,65.67
2022-08-03T00:06:42.917Z,64.61
2022-08-03T00:09:09.422Z,65.78
2022-08-03T00:11:36.681Z,64.66
2022-08-03T00:14:04.976Z,64.09
2022-08-03T00:16:31.665Z,64.95
2022-08-03T00:18:58.117Z,65.09
2022-08-03T00:21:27.551Z,64.26
2022-08-03T00:23:54.295Z,64.34
2022-08-03T00:26:21.348Z,64.93
2022-08-03T00:28:48.698Z,65.27
2022-08-03T00:31:15.330Z,65.15
2022-08-03T00:33:59.174Z,65.66
2022-08-03T00:36:28.303Z,65.89
2022-08-03T00:38:55.909Z,67.84
2022-08-03T00:41:22.801Z,66.97
2022-08-03T00:43:49.322Z,66.82
2022-08-03T00:46:21.045Z,67.15
2022-08-03T00:48:52.122Z,67.24
2022-08-03T00:51:20.108Z,68.25
2022-08-03T00:53:46.639Z,67.94
2022-08-03T00:56:15.120Z,69.11
2022-08-03T00:58:41.862Z,68.97
2022-08-03T01:01:08.349Z,68.69
2022-08-03T01:03:34.880Z,68.29
2022-08-03T01:06:20.229Z,69.87
2022-08-03T01:08:54.854Z,68.81
2022-08-03T01:11:32.006Z,69.96
2022-08-03T01:14:18.588Z,69.63
2022-08-03T01:16:55.969Z,68.84
2022-08-03T01:19:22.360Z,68.46
2022-08-03T01:22:26.678Z,68.18
2022-08-03T01:25:21.405Z,67.10
2022-08-03T01:27:58.550Z,68.16
2022-08-03T01:30:31.989Z,68.01
2022-08-03T01:33:07.126Z,68.34
2022-08-03T01:35:39.214Z,69.56
2022-08-03T01:38:14.322Z,69.93
2022-08-03T01:40:42.258Z,68.87
2022-08-03T01:43:11.559Z,69.89
2022-08-03T01:45:38.602Z,69.57
2022-08-03T01:48:05.439Z,69.97
2022-08-03T01:50:34.815Z,70.71
2022-08-03T01:53:01.896Z,68.90
2022-08-03T01:55:29.715Z,69.58
2022-08-03T01:58:05.469Z,69.98
2022-08-03T02:00:36.172Z,70.02
2022-08-03T02:03:05.966Z,71.72
2022-08-03T02:05:34.033Z,70.12
2022-08-03T02:08:02.216Z,70.68
2022-08-03T02:10:35.556Z,71.43
2022-08-03T02:13:05.625Z,71.57
2022-08-03T02:15:32.891Z,71.46
2022-08-03T02:18:00.383Z,71.06
2022-08-03T02:20:27.343Z,71.80
2022-08-03T02:22:53.944Z,71.76
2022-08-03T02:25:20.526Z,71.60
2022-08-03T02:27:53.061Z,73.08
2022-08-03T02:30:20.655Z,71.18
2022-08-03T02:32:52.161Z,71.56
2022-08-03T02:35:21.210Z,71.04
2022-08-03T02:37:52.044Z,71.89
2022-08-03T02:40:20.508Z,71.43
2022-08-03T02:42:50.231Z,71.32
2022-08-03T02:45:17.125Z,71.57
2022-08-03T02:47:53.477Z,73.18
2022-08-03T02:50:22.269Z,71.69
2022-08-03T02:52:49.939Z,72.08
2022-08-03T02:55:18.262Z,72.23
2022-08-03T02:57:45.029Z,73.01
2022-08-03T03:00:12.826Z,73.55
2022-08-03T03:02:46.318Z,72.71
2022-08-03T03:05:54.450Z,73.13
2022-08-03T03:07:59.707Z,72.56
2022-08-03T03:10:27.995Z,73.56
2022-08-03T03:12:58.563Z,72.95
2022-08-03T03:15:26.922Z,73.99
2022-08-03T03:17:53.795Z,73.77
2022-08-03T03:20:29.620Z,74.30
2022-08-03T03:22:58.875Z,73.53
2022-08-03T03:25:25.436Z,72.32
2022-08-03T03:27:52.166Z,72.11
2022-08-03T03:30:18.907Z,72.95
2022-08-03T03:32:45.399Z,73.27
2022-08-03T03:35:13.117Z,73.31
2022-08-03T03:37:39.936Z,74.02
2022-08-03T03:40:08.885Z,73.60
2022-08-03T03:42:35.518Z,74.70
2022-08-03T03:45:08.916Z,74.59
2022-08-03T03:47:35.612Z,74.04
2022-08-03T03:50:03.923Z,74.40
2022-08-03T03:52:32.146Z,73.65
2022-08-03T03:55:01.077Z,73.96
2022-08-03T03:57:28.202Z,74.16
2022-08-03T03:59:54.731Z,73.64
2022-08-03T04:02:21.324Z,74.32
2022-08-03T04:05:06.289Z,74.10
2022-08-03T04:07:58.892Z,74.76
2022-08-03T04:10:47.454Z,74.46
2022-08-03T04:13:15.976Z,74.56
2022-08-03T04:15:42.887Z,75.11
2022-08-03T04:18:12.610Z,74.70
2022-08-03T04:20:40.892Z,74.04
2022-08-03T04:23:12.778Z,74.52
2022-08-03T04:25:44.689Z,73.78
2022-08-03T04:28:30.899Z,74.21
2022-08-03T04:30:59.793Z,74.76
2022-08-03T04:33:29.311Z,75.60
2022-08-03T04:36:02.557Z,75.90
2022-08-03T04:38:31.698Z,76.42
2022-08-03T04:40:59.408Z,76.38
2022-08-03T04:43:26.998Z,76.69
2022-08-03T04:45:54.564Z,75.87
2022-08-03T04:48:21.191Z,76.17
2022-08-03T04:50:50.367Z,75.15
2022-08-03T04:53:18.061Z,74.74
2022-08-03T04:55:45.985Z,75.88
2022-08-03T04:58:12.655Z,75.90
2022-08-03T05:00:39.322Z,75.16
2022-08-03T05:03:23.741Z,74.29
2022-08-03T05:05:52.670Z,73.99
2022-08-03T05:08:20.761Z,74.80
2022-08-03T05:10:55.185Z,74.18
2022-08-03T05:13:21.624Z,75.72
2022-08-03T05:15:48.144Z,75.82
2022-08-03T05:18:14.692Z,75.10
2022-08-03T05:20:41.521Z,74.27
2022-08-03T05:23:08.033Z,73.45
2022-08-03T05:25:34.509Z,72.08
2022-08-03T05:28:01.308Z,70.15
2022-08-03T05:30:34.194Z,69.36
2022-08-03T05:33:02.349Z,68.73
2022-08-03T05:35:56.038Z,68.57
2022-08-03T05:38:24.282Z,66.41
2022-08-03T05:40:57.552Z,65.61
2022-08-03T05:43:41.659Z,63.45
2022-08-03T05:46:12.262Z,63.08
2022-08-03T05:48:39.776Z,61.55
2022-08-03T05:51:07.739Z,61.21
2022-08-03T05:53:34.750Z,60.30
2022-08-03T05:56:13.283Z,61.12
2022-08-03T05:58:40.055Z,60.37
2022-08-03T06:01:06.573Z,57.64
2022-08-03T06:03:35.922Z,58.12
2022-08-03T06:06:02.436Z,55.90
2022-08-03T06:08:28.890Z,55.84
2022-08-03T06:10:55.364Z,54.76
2022-08-03T06:13:22.068Z,53.81
2022-08-03T06:15:48.527Z,51.95
2022-08-03T06:18:15.019Z,50.90
2022-08-03T06:20:41.618Z,50.61
2022-08-03T06:23:08.092Z,51.43
2022-08-03T06:25:42.822Z,49.70
2022-08-03T06:28:19.087Z,49.71
2022-08-03T06:30:55.610Z,50.14
2022-08-03T06:33:22.080Z,51.43
2022-08-03T06:35:48.583Z,50.51
2022-08-03T06:38:15.205Z,48.45
2022-08-03T06:40:42.047Z,48.26
2022-08-03T06:43:12.558Z,48.00
2022-08-03T06:45:39.382Z,48.33
2022-08-03T06:48:08.000Z,46.71
2022-08-03T06:50:35.436Z,46.14
2022-08-03T06:53:02.309Z,47.51
2022-08-03T06:55:28.775Z,46.59
2022-08-03T06:57:55.347Z,47.03
2022-08-03T07:00:26.559Z,46.14
2022-08-03T07:02:57.936Z,46.13
2022-08-03T07:05:24.940Z,46.45
2022-08-03T07:07:51.428Z,46.21
2022-08-03T07:10:17.869Z,46.58
2022-08-03T07:12:52.680Z,46.03
2022-08-03T07:15:54.477Z,46.36
2022-08-03T07:18:10.054Z,45.93
2022-08-03T07:20:36.702Z,45.85
2022-08-03T07:23:03.216Z,46.43
2022-08-03T07:25:29.678Z,45.19
2022-08-03T07:27:56.299Z,44.69
2022-08-03T07:30:23.316Z,45.24
2022-08-03T07:32:50.766Z,45.51
2022-08-03T07:35:25.117Z,43.75
2022-08-03T07:37:54.450Z,43.66
2022-08-03T07:40:22.202Z,43.44
2022-08-03T07:42:48.805Z,43.06
2022-08-03T07:45:23.262Z,42.90
2022-08-03T07:47:53.316Z,42.86
2022-08-03T07:50:20.291Z,43.49
2022-08-03T07:52:50.234Z,41.24
2022-08-03T07:55:19.001Z,42.23
2022-08-03T07:57:45.712Z,40.78
2022-08-03T08:00:19.129Z,40.56
2022-08-03T08:02:48.069Z,40.28
2022-08-03T08:05:14.575Z,40.45
2022-08-03T08:07:41.266Z,40.17
2022-08-03T08:10:10.055Z,39.92
2022-08-03T08:12:37.637Z,39.96
2022-08-03T08:15:04.871Z,39.82
2022-08-03T08:17:31.326Z,39.64
2022-08-03T08:19:57.936Z,40.90
2022-08-03T08:22:30.609Z,39.98
2022-08-03T08:24:59.459Z,40.22
2022-08-03T08:27:26.161Z,39.53
2022-08-03T08:29:56.312Z,38.75
2022-08-03T08:32:25.335Z,39.66
2022-08-03T08:34:51.898Z,39.16
2022-08-03T08:37:18.411Z,38.18
2022-08-03T08:39:44.924Z,38.27
2022-08-03T08:42:11.746Z,36.77
2022-08-03T08:44:38.283Z,37.57
2022-08-03T08:47:04.951Z,36.69
2022-08-03T08:49:32.740Z,36.68
2022-08-03T08:52:01.058Z,36.73
2022-08-03T08:54:29.681Z,37.19
2022-08-03T08:56:57.340Z,37.22
2022-08-03T08:59:24.386Z,36.96
2022-08-03T09:01:50.853Z,37.83
2022-08-03T09:04:17.598Z,37.10
2022-08-03T09:06:58.572Z,35.99
2022-08-03T09:10:12.344Z,35.37
2022-08-03T09:12:40.631Z,35.79
2022-08-03T09:15:23.948Z,36.08
2022-08-03T09:17:51.962Z,35.80
2022-08-03T09:20:19.794Z,35.25
2022-08-03T09:23:19.029Z,34.73
2022-08-03T09:25:57.854Z,33.97
2022-08-03T09:29:00.204Z,33.83
2022-08-03T09:31:20.429Z,33.87
2022-08-03T09:33:48.151Z,32.79
2022-08-03T09:36:39.468Z,33.32
2022-08-03T09:39:10.857Z,32.72
2022-08-03T09:41:41.367Z,32.83
2022-08-03T09:44:08.648Z,33.47
2022-08-03T09:46:53.309Z,32.73
2022-08-03T09:49:19.929Z,32.89
2022-08-03T09:52:32.451Z,32.80
2022-08-03T09:54:34.146Z,31.96
2022-08-03T09:57:00.856Z,31.97
2022-08-03T09:59:29.000Z,32.26
2022-08-03T10:01:56.855Z,31.31
2022-08-03T10:04:24.143Z,31.56
2022-08-03T10:07:08.330Z,30.83
2022-08-03T10:09:35.686Z,31.05
2022-08-03T10:12:10.466Z,29.95
2022-08-03T10:14:38.934Z,31.11
2022-08-03T10:17:05.648Z,30.39
2022-08-03T10:19:33.276Z,30.95
2022-08-03T10:22:30.256Z,30.26
2022-08-03T10:25:07.768Z,29.76
2022-08-03T10:27:37.153Z,29.53
2022-08-03T10:30:06.321Z,29.46
2022-08-03T10:32:41.031Z,30.75
2022-08-03T10:35:23.350Z,30.56
2022-08-03T10:37:57.209Z,31.05
2022-08-03T10:40:46.839Z,29.46
2022-08-03T10:43:16.332Z,29.28
2022-08-03T10:45:43.907Z,28.15
2022-08-03T10:48:10.523Z,28.67
2022-08-03T10:50:37.355Z,29.44
2022-08-03T10:53:08.582Z,29.65
2022-08-03T10:56:00.230Z,28.85
2022-08-03T10:58:37.406Z,29.73
2022-08-03T11:01:59.813Z,28.70
2022-08-03T11:04:29.201Z,27.94
2022-08-03T11:07:16.002Z,28.18
2022-08-03T11:09:44.816Z,27.76
2022-08-03T11:12:40.934Z,28.36
2022-08-03T11:15:08.715Z,28.38
2022-08-03T11:17:46.472Z,27.62
2022-08-03T11:20:57.549Z,27.10
2022-08-03T11:24:05.458Z,27.87
2022-08-03T11:26:33.663Z,27.12
2022-08-03T11:29:34.234Z,28.33
2022-08-03T11:32:00.791Z,26.89
2022-08-03T11:34:27.365Z,26.73
2022-08-03T11:37:20.521Z,26.55
2022-08-03T11:39:51.783Z,26.51
2022-08-03T11:42:24.346Z,26.86
2022-08-03T11:44:52.552Z,26.55
2022-08-03T11:47:21.046Z,26.36
2022-08-03T11:49:48.836Z,26.50
2022-08-03T11:52:16.669Z,27.70
2022-08-03T11:54:43.654Z,25.62
2022-08-03T11:57:10.253Z,25.61
2022-08-03T11:59:38.775Z,25.56
2022-08-03T12:02:11.158Z,25.25
2022-08-03T12:04:54.089Z,25.52
2022-08-03T12:08:02.338Z,27.17
2022-08-03T12:10:12.756Z,25.89
2022-08-03T12:12:43.354Z,26.17
2022-08-03T12:15:12.965Z,25.39
2022-08-03T12:17:41.080Z,25.63
2022-08-03T12:20:09.977Z,25.38
2022-08-03T12:22:39.261Z,25.13
2022-08-03T12:25:09.769Z,24.61
2022-08-03T12:27:36.965Z,24.60
2022-08-03T12:30:04.460Z,25.47
2022-08-03T12:32:31.060Z,26.76
2022-08-03T12:35:00.825Z,26.91
2022-08-03T12:37:28.339Z,24.95
2022-08-03T12:40:00.950Z,25.32
2022-08-03T12:42:36.553Z,25.87
2022-08-03T12:45:22.433Z,25.42
2022-08-03T12:47:57.223Z,25.96
2022-08-03T12:50:31.429Z,26.26
2022-08-03T12:53:03.116Z,25.94
2022-08-03T12:55:56.645Z,25.43
2022-08-03T12:58:35.604Z,24.91
2022-08-03T13:01:09.728Z,25.40
2022-08-03T13:03:49.814Z,25.82
2022-08-03T13:06:25.420Z,24.88
2022-08-03T13:09:03.811Z,26.11
2022-08-03T13:11:57.584Z,26.83
2022-08-03T13:14:19.574Z,25.50
2022-08-03T13:16:47.318Z,27.33
2022-08-03T13:19:15.610Z,25.59
2022-08-03T13:21:53.800Z,26.77
2022-08-03T13:24:29.693Z,25.70
2022-08-03T13:26:57.318Z,24.27
2022-08-03T13:29:23.788Z,25.54
2022-08-03T13:31:51.206Z,24.61
2022-08-03T13:34:23.211Z,24.36
2022-08-03T13:37:08.333Z,24.21
2022-08-03T13:39:35.635Z,25.07
2022-08-03T13:42:22.122Z,24.17
2022-08-03T13:44:48.568Z,23.31
2022-08-03T13:47:15.034Z,24.54
2022-08-03T13:49:42.071Z,23.43
2022-08-03T13:52:21.097Z,23.99
2022-08-03T13:54:47.744Z,23.25
2022-08-03T13:58:05.099Z,23.41
2022-08-03T14:00:02.807Z,23.92
2022-08-03T14:02:29.535Z,23.57
2022-08-03T14:04:56.136Z,24.25
2022-08-03T14:07:23.231Z,23.93
2022-08-03T14:09:49.782Z,24.79
2022-08-03T14:12:16.264Z,24.17
2022-08-03T14:14:42.749Z,23.61
2022-08-03T14:17:09.256Z,23.60
2022-08-03T14:19:52.622Z,23.19
2022-08-03T14:22:20.270Z,23.68
2022-08-03T14:24:46.735Z,25.37
2022-08-03T14:27:13.207Z,24.38
2022-08-03T14:29:40.873Z,24.02
2022-08-03T14:32:11.399Z,24.65
2022-08-03T14:34:39.353Z,26.02
2022-08-03T14:37:05.903Z,24.76
2022-08-03T14:42:20.413Z,25.05
2022-08-03T14:44:47.344Z,24.72
2022-08-03T14:47:14.221Z,24.84
2022-08-03T14:50:31.257Z,24.02
2022-08-03T14:52:27.232Z,24.53
2022-08-03T14:54:53.725Z,25.62
2022-08-03T14:57:20.389Z,24.60
2022-08-03T14:59:55.748Z,23.44
2022-08-03T15:02:24.538Z,25.84
2022-08-03T15:04:51.799Z,23.49
2022-08-03T15:07:18.596Z,23.28
2022-08-03T15:09:45.458Z,24.31
2022-08-03T15:12:11.927Z,23.69
2022-08-03T15:14:39.003Z,25.96
2022-08-03T15:17:06.138Z,23.65
2022-08-03T15:20:00.301Z,25.75
2022-08-03T15:22:20.723Z,24.00
2022-08-03T15:24:51.544Z,25.32
2022-08-03T15:27:18.161Z,24.71
2022-08-03T15:30:05.082Z,26.23
2022-08-03T15:32:31.254Z,24.59
2022-08-03T15:34:57.699Z,24.67
2022-08-03T15:37:25.655Z,24.46
2022-08-03T15:39:58.727Z,24.06
2022-08-03T15:42:28.094Z,25.51
2022-08-03T15:44:54.850Z,24.31
2022-08-03T15:47:21.669Z,24.58
2022-08-03T15:49:48.454Z,27.12
2022-08-03T15:52:14.928Z,24.77
2022-08-03T15:54:41.405Z,24.97
2022-08-03T15:57:07.948Z,24.86
2022-08-03T15:59:34.418Z,25.61
2022-08-03T16:02:00.973Z,24.66
2022-08-03T16:04:27.535Z,26.03
2022-08-03T16:06:54.098Z,24.56
2022-08-03T16:09:23.964Z,25.83
2022-08-03T16:12:16.383Z,24.76
2022-08-03T16:14:53.386Z,25.20
2022-08-03T16:17:21.492Z,25.31
2022-08-03T16:19:48.260Z,27.13
2022-08-03T16:22:14.752Z,24.59
2022-08-03T16:24:41.405Z,24.41
2022-08-03T16:27:17.668Z,24.73
2022-08-03T16:29:54.683Z,25.39
2022-08-03T16:32:21.243Z,27.21
2022-08-03T16:34:48.194Z,27.29
2022-08-03T16:37:37.605Z,25.18
2022-08-03T16:40:02.344Z,26.54
2022-08-03T16:42:28.881Z,26.42
2022-08-03T16:44:55.356Z,26.91
2022-08-03T16:47:22.801Z,25.17
2022-08-03T16:49:54.779Z,26.24
2022-08-03T16:52:23.092Z,24.76
2022-08-03T16:54:50.575Z,26.14
2022-08-03T16:57:55.855Z,27.76
2022-08-03T17:00:06.884Z,25.63
2022-08-03T17:02:33.470Z,25.61
2022-08-03T17:05:03.270Z,26.21
2022-08-03T17:07:30.542Z,28.67
2022-08-03T17:09:57.428Z,26.15
2022-08-03T17:12:26.907Z,27.17
2022-08-03T17:14:53.966Z,26.06
2022-08-03T17:17:29.517Z,26.33
2022-08-03T17:19:58.093Z,26.17
2022-08-03T17:22:33.109Z,26.45
2022-08-03T17:25:07.545Z,27.53
2022-08-03T17:28:48.766Z,26.79
2022-08-03T17:30:22.356Z,26.62
2022-08-03T17:32:56.587Z,27.19
2022-08-03T17:35:24.983Z,26.57
2022-08-03T17:38:13.764Z,26.43
2022-08-03T17:40:48.179Z,27.94
2022-08-03T17:44:16.466Z,27.13
2022-08-03T17:46:07.145Z,27.70
2022-08-03T17:48:34.172Z,26.88
2022-08-03T17:51:15.390Z,27.97
2022-08-03T17:53:50.215Z,27.89
2022-08-03T17:56:40.368Z,27.62
2022-08-03T17:59:25.190Z,27.65
2022-08-03T18:02:59.547Z,27.57
2022-08-03T18:06:12.332Z,28.04
2022-08-03T18:08:19.498Z,28.91
2022-08-03T18:13:53.500Z,30.24
2022-08-03T18:16:39.049Z,31.23
2022-08-03T18:19:09.580Z,30.91
2022-08-03T18:22:02.887Z,30.39
2022-08-03T18:24:28.423Z,30.27
2022-08-03T18:26:57.266Z,31.00
2022-08-03T18:29:24.989Z,31.13
2022-08-03T18:32:02.517Z,32.02
2022-08-03T18:34:33.799Z,32.57
2022-08-03T18:37:01.191Z,33.22
2022-08-03T18:39:49.515Z,33.30
2022-08-03T18:42:19.432Z,33.55
2022-08-03T18:44:54.329Z,33.23
2022-08-03T18:47:51.576Z,34.64
2022-08-03T18:50:31.410Z,34.19
2022-08-03T18:53:02.665Z,34.96
2022-08-03T18:55:40.515Z,35.47
2022-08-03T18:58:56.228Z,35.31
2022-08-03T19:02:00.794Z,36.01
2022-08-03T19:04:34.236Z,36.04
2022-08-03T19:07:24.684Z,36.47
2022-08-03T19:09:54.597Z,36.42
2022-08-03T19:12:39.884Z,36.72
2022-08-03T19:15:12.358Z,37.63
2022-08-03T19:17:50.158Z,37.46
2022-08-03T19:20:30.953Z,38.01
2022-08-03T19:22:58.757Z,37.77
2022-08-03T19:25:34.535Z,38.04
2022-08-03T19:28:03.796Z,38.19
2022-08-03T19:30:37.866Z,39.32
2022-08-03T19:33:07.741Z,38.58
2022-08-03T19:35:51.473Z,38.84
2022-08-03T19:38:28.689Z,39.11
2022-08-03T19:41:01.468Z,39.42
2022-08-03T19:43:49.275Z,39.68
2022-08-03T19:46:21.368Z,40.25
2022-08-03T19:49:04.527Z,40.64
2022-08-03T19:52:01.893Z,40.87
2022-08-03T19:54:29.416Z,41.18
2022-08-03T19:56:57.476Z,40.98
2022-08-03T19:59:24.658Z,41.19
2022-08-03T20:01:53.008Z,41.46
2022-08-03T20:04:21.274Z,42.21
2022-08-03T20:06:49.632Z,42.59
2022-08-03T20:09:16.782Z,42.69
2022-08-03T20:11:45.136Z,43.31
2022-08-03T20:14:20.590Z,43.17
2022-08-03T20:16:55.929Z,43.73
2022-08-03T20:19:22.875Z,43.50
2022-08-03T20:21:53.036Z,44.50
2022-08-03T20:24:27.377Z,44.85
2022-08-03T20:26:57.819Z,45.02
2022-08-03T20:32:24.657Z,44.84
2022-08-03T20:34:51.993Z,45.88
2022-08-03T20:37:19.614Z,45.88
2022-08-03T20:39:48.278Z,45.81
2022-08-03T20:42:21.654Z,46.69
2022-08-03T20:45:06.036Z,46.72
2022-08-03T20:47:50.480Z,47.11
2022-08-03T20:50:17.576Z,47.27
2022-08-03T20:52:49.697Z,46.84
2022-08-03T20:55:16.977Z,47.51
2022-08-03T20:57:49.075Z,47.63
2022-08-03T21:00:17.734Z,47.31
2022-08-03T21:02:44.491Z,47.60
2022-08-03T21:05:11.554Z,47.79
2022-08-03T21:10:40.643Z,47.76
2022-08-03T21:12:57.105Z,29.58
2022-08-03T21:13:06.984Z,45.45
2022-08-03T21:13:14.115Z,47.85
2022-08-03T21:16:02.314Z,48.17
2022-08-03T21:18:43.165Z,48.28
2022-08-03T21:21:10.574Z,48.08
2022-08-03T21:23:45.521Z,47.72
2022-08-03T21:26:16.709Z,48.52
2022-08-03T21:28:43.818Z,48.61
2022-08-03T21:31:10.404Z,48.72
2022-08-03T21:33:37.036Z,49.21
2022-08-03T21:36:03.797Z,48.83
2022-08-03T21:38:30.546Z,49.05
2022-08-03T21:40:57.306Z,49.13
2022-08-03T21:43:23.932Z,49.44
2022-08-03T21:45:59.873Z,49.70
2022-08-03T21:48:27.365Z,49.49
2022-08-03T21:50:54.140Z,50.24
2022-08-03T21:53:20.814Z,49.46
2022-08-03T21:56:19.478Z,49.79
2022-08-03T21:58:57.117Z,50.65
2022-08-03T22:01:28.354Z,50.91
2022-08-03T22:04:05.111Z,51.27
2022-08-03T22:06:33.965Z,51.56
2022-08-03T22:09:01.059Z,51.40
2022-08-03T22:11:27.695Z,51.09
2022-08-03T22:13:54.185Z,51.06
2022-08-03T22:16:21.348Z,51.96
2022-08-03T22:18:47.964Z,51.72
2022-08-03T22:21:16.194Z,51.67
2022-08-03T22:23:55.132Z,52.21
2022-08-03T22:26:34.667Z,53.03
2022-08-03T22:29:01.840Z,52.05
2022-08-03T22:31:30.708Z,52.56
2022-08-03T22:34:14.918Z,53.01
2022-08-03T22:36:41.646Z,52.90
2022-08-03T22:39:08.148Z,53.00
2022-08-03T22:41:34.703Z,53.59
2022-08-03T22:44:04.557Z,53.85
2022-08-03T22:46:32.950Z,53.34
2022-08-03T22:49:00.577Z,53.44
2022-08-03T22:51:27.088Z,53.41
2022-08-03T22:53:53.671Z,53.92
2022-08-03T22:56:20.219Z,53.09
2022-08-03T22:58:46.678Z,54.05
2022-08-03T23:01:14.437Z,54.12
2022-08-03T23:04:01.122Z,54.15
2022-08-03T23:06:33.687Z,53.79
2022-08-03T23:09:01.902Z,54.53
2022-08-03T23:11:28.533Z,54.30
2022-08-03T23:13:56.887Z,54.60
2022-08-03T23:16:28.624Z,54.74
2022-08-03T23:18:57.820Z,54.47
2022-08-03T23:22:00.428Z,54.85
2022-08-03T23:24:24.612Z,54.80
2022-08-03T23:26:57.080Z,54.66
2022-08-03T23:29:23.816Z,55.23
2022-08-03T23:31:52.136Z,55.43
2022-08-03T23:34:37.574Z,55.87
2022-08-03T23:37:07.442Z,56.32
2022-08-03T23:39:35.059Z,55.69
2022-08-03T23:42:03.009Z,56.02
2022-08-03T23:44:30.822Z,55.62
2022-08-03T23:46:57.283Z,56.06
2022-08-03T23:49:23.778Z,56.39
2022-08-03T23:52:12.654Z,56.57
2022-08-03T23:55:13.371Z,56.69
2022-08-03T23:57:57.867Z,57.30
